Elizabethport, New Jersey
Current Conditions -  °F | °C
As of 11:51 PM on Wednesday 26 Nov 2014 (Local Time) from KEWR Reporting Station
Overcast Overcast  
Wind Chill: 29°   Ceiling: 4500
Heat Index: 37°   Visibility: 9mi
Dew Point: 33°   Wind: 12mph
Humidity: 86%   Direction: 330°NNW
Pressure: 29.85"   Gusts: NA
Location:  40.6522°N, 74.1905°W
Report Text: KEWR 270451Z 33010KT 9SM FEW020 SCT028 OVC045 03/01 A2985 RMK AO2 SLP109 T00280006 400940000
Loading
Personal Weather Stations






























Interactive Weather Map New forecast layout! Learn more

10-Day Weather Forecast

Advertisements
Track Severe Weather on mobile